Time;durP1;ratioP1;P1;durP2;ratioP2;P2;SDS_P1;SDS_P2;PMS_P1;PMS_P2;Temp;Humidity;BMP_temperature;BMP_pressure;BME280_temperature;BME280_humidity;BME280_pressure;Samples;Min_cycle;Max_cycle;Signal;HPM_P1;HPM_P2
2021/06/17 00:01:29;;;;;;;4.60;3.72;;;;;;;18.13;78.00;98966.25;5113573;28;20023;-77
2021/06/17 00:03:55;;;;;;;8.38;3.40;;;;;;;18.09;78.45;98960.72;5095675;28;20084;-77
2021/06/17 00:06:20;;;;;;;4.32;3.53;;;;;;;18.10;78.30;98964.19;5095353;28;20103;-78
2021/06/17 00:08:46;;;;;;;5.65;3.17;;;;;;;18.09;78.27;98966.13;5113323;28;20031;-79
2021/06/17 00:11:11;;;;;;;5.05;3.90;;;;;;;18.07;78.48;98965.66;5095423;28;20020;-78
2021/06/17 00:13:37;;;;;;;11.65;4.50;;;;;;;18.03;78.10;98965.50;5113594;28;20024;-77
2021/06/17 00:16:06;;;;;;;3.72;3.30;;;;;;;18.00;78.45;98958.03;5113993;28;20027;-78
2021/06/17 00:18:32;;;;;;;4.93;3.60;;;;;;;17.99;78.53;98953.75;5111514;28;20031;-77
2021/06/17 00:20:59;;;;;;;3.35;2.88;;;;;;;18.00;78.92;98962.66;5113676;28;20027;-77
2021/06/17 00:23:25;;;;;;;5.83;3.30;;;;;;;17.99;79.13;98956.47;5107973;28;20470;-77
2021/06/17 00:25:51;;;;;;;5.95;3.53;;;;;;;18.00;78.72;98962.66;5113442;28;20067;-78
2021/06/17 00:28:16;;;;;;;6.20;3.55;;;;;;;17.98;79.19;98959.47;5093395;28;20034;-77
2021/06/17 00:30:42;;;;;;;3.40;3.10;;;;;;;17.95;79.21;98949.34;5092853;28;20024;-77
2021/06/17 00:33:08;;;;;;;5.18;3.08;;;;;;;17.96;79.64;98953.63;5093222;28;20077;-78
2021/06/17 00:35:34;;;;;;;3.25;3.05;;;;;;;17.96;79.59;98957.13;5075701;28;20081;-78
2021/06/17 00:38:01;;;;;;;4.88;3.30;;;;;;;17.98;79.61;98952.19;5092238;28;20399;-78
2021/06/17 00:40:27;;;;;;;6.47;3.78;;;;;;;18.01;79.68;98953.44;5092743;28;20024;-77
2021/06/17 00:42:54;;;;;;;4.22;3.55;;;;;;;18.02;79.47;98955.81;5093314;28;20024;-77
2021/06/17 00:45:32;;;;;;;5.63;3.25;;;;;;;18.01;79.48;98948.03;5092750;28;20115;-78
2021/06/17 00:47:59;;;;;;;4.82;3.58;;;;;;;18.05;79.33;98947.03;5074801;28;20028;-78
2021/06/17 00:50:28;;;;;;;3.85;3.28;;;;;;;18.08;79.54;98949.06;5092371;28;20038;-78
2021/06/17 00:52:53;;;;;;;5.43;3.90;;;;;;;18.08;79.26;98946.38;5075026;28;20458;-78
2021/06/17 00:55:19;;;;;;;6.72;3.75;;;;;;;18.08;79.10;98946.38;5074685;28;20051;-81
2021/06/17 00:57:45;;;;;;;5.85;3.70;;;;;;;18.11;79.03;98946.84;5074589;28;20494;-83
2021/06/17 01:00:14;;;;;;;5.50;3.65;;;;;;;18.07;78.43;98939.38;5074361;28;20475;-80
2021/06/17 01:02:39;;;;;;;5.15;3.50;;;;;;;18.05;78.50;98944.34;5092800;28;20020;-78
2021/06/17 01:05:18;;;;;;;5.70;3.45;;;;;;;18.01;78.40;98940.69;5074504;28;20483;-78
2021/06/17 01:07:52;;;;;;;4.15;3.50;;;;;;;18.00;77.98;98936.38;5074434;28;20017;-79
2021/06/17 01:10:20;;;;;;;7.78;3.72;;;;;;;17.97;78.05;98937.06;5078422;28;20023;-79
2021/06/17 01:13:02;;;;;;;5.20;3.47;;;;;;;17.96;77.98;98934.69;5093997;28;20659;-81
2021/06/17 01:15:30;;;;;;;4.57;3.38;;;;;;;17.93;78.09;98946.91;5093284;28;20172;-80
2021/06/17 01:18:02;;;;;;;3.88;3.58;;;;;;;17.90;77.85;98942.16;5073832;28;20063;-81
2021/06/17 01:20:58;;;;;;;3.88;3.55;;;;;;;17.91;77.65;98941.81;5073706;28;20135;-79
2021/06/17 01:23:49;;;;;;;9.60;3.50;;;;;;;17.92;77.65;98940.72;5072878;28;20422;-79
2021/06/17 01:26:36;;;;;;;4.05;3.60;;;;;;;17.93;77.63;98938.78;5109019;28;20101;-80
2021/06/17 01:29:03;;;;;;;4.82;3.47;;;;;;;17.93;77.61;98952.31;5093767;28;20031;-81
2021/06/17 01:31:33;;;;;;;3.67;3.37;;;;;;;17.91;77.50;98944.53;5093480;28;20038;-79
2021/06/17 01:33:59;;;;;;;5.55;4.72;;;;;;;17.93;77.99;98949.59;5094029;28;20032;-78
2021/06/17 01:36:33;;;;;;;3.80;3.40;;;;;;;17.94;77.57;98962.03;5111532;28;20028;-79
2021/06/17 01:39:01;;;;;;;4.15;3.80;;;;;;;17.91;77.60;98949.16;5076532;28;20115;-78
2021/06/17 01:41:31;;;;;;;3.67;3.38;;;;;;;17.92;77.58;98956.94;5073476;28;20410;-80
2021/06/17 01:43:59;;;;;;;4.35;3.28;;;;;;;17.87;77.56;98951.72;5073411;28;20039;-79
2021/06/17 01:46:26;;;;;;;4.43;3.65;;;;;;;17.87;77.81;98951.72;5073660;28;20409;-79
2021/06/17 01:48:53;;;;;;;4.10;3.47;;;;;;;17.89;77.60;98962.22;5091547;28;20028;-78
2021/06/17 01:51:22;;;;;;;4.00;3.53;;;;;;;17.89;77.84;98954.91;5082971;28;20027;-79
2021/06/17 01:53:49;;;;;;;4.78;4.38;;;;;;;17.89;77.67;98954.91;5096594;28;20040;-78
2021/06/17 01:56:18;;;;;;;3.97;3.58;;;;;;;17.91;77.66;98949.16;5084403;28;20526;-79
2021/06/17 01:58:46;;;;;;;4.30;3.90;;;;;;;17.89;77.48;98945.97;5073031;28;20118;-78
2021/06/17 02:01:17;;;;;;;5.10;3.97;;;;;;;17.92;77.29;98948.81;5095015;28;20144;-78
2021/06/17 02:03:44;;;;;;;4.45;4.05;;;;;;;17.92;77.38;98942.63;5111492;28;20055;-78
2021/06/17 02:06:19;;;;;;;4.20;3.72;;;;;;;17.94;77.24;98945.78;5111536;28;20482;-77
2021/06/17 02:08:47;;;;;;;8.30;3.67;;;;;;;17.93;77.18;98941.50;5079448;28;20475;-77
2021/06/17 02:11:15;;;;;;;6.28;4.07;;;;;;;17.98;77.20;98943.25;5108868;28;20027;-79
2021/06/17 02:13:41;;;;;;;6.45;3.97;;;;;;;17.98;76.93;98938.66;5093057;28;20035;-79
2021/06/17 02:16:08;;;;;;;5.07;3.35;;;;;;;17.99;76.76;98944.84;5093414;28;20027;-79
2021/06/17 02:18:35;;;;;;;3.25;3.05;;;;;;;18.00;76.44;98946.44;5111878;28;20032;-79
2021/06/17 02:21:02;;;;;;;3.28;2.97;;;;;;;18.02;76.39;98944.97;5093274;28;20034;-80
2021/06/17 02:23:31;;;;;;;4.28;3.85;;;;;;;18.04;75.99;98952.75;5082375;28;20028;-78
2021/06/17 02:25:58;;;;;;;5.80;3.17;;;;;;;18.05;75.76;98955.16;5087094;28;20040;-78
2021/06/17 02:28:26;;;;;;;6.73;3.97;;;;;;;18.04;75.73;98958.16;5093143;28;20113;-80
2021/06/17 02:30:54;;;;;;;5.25;3.25;;;;;;;18.06;75.49;98955.94;5110832;28;20355;-80
2021/06/17 02:33:22;;;;;;;3.58;3.30;;;;;;;18.09;75.36;98958.00;5093206;28;20062;-80
2021/06/17 02:35:52;;;;;;;3.25;2.95;;;;;;;18.08;75.28;98962.59;5093198;28;20035;-79
2021/06/17 02:38:23;;;;;;;3.97;2.92;;;;;;;18.08;75.05;98962.59;5076978;28;20032;-79
2021/06/17 02:40:50;;;;;;;4.53;3.38;;;;;;;18.07;75.17;98966.44;5085224;28;20135;-79
2021/06/17 02:43:18;;;;;;;6.47;3.30;;;;;;;18.06;75.04;98967.53;5093229;28;20027;-80
2021/06/17 02:45:47;;;;;;;3.53;2.75;;;;;;;18.07;75.14;98974.53;5092904;28;20028;-81
2021/06/17 02:48:13;;;;;;;2.83;2.58;;;;;;;18.05;74.73;98976.81;5093093;28;20118;-80
2021/06/17 02:50:40;;;;;;;3.42;3.13;;;;;;;18.07;75.20;98976.47;5074264;28;20497;-80
2021/06/17 02:53:05;;;;;;;4.35;3.22;;;;;;;18.05;74.85;98990.34;5106360;28;20036;-78
2021/06/17 02:55:31;;;;;;;4.38;3.35;;;;;;;18.06;74.89;98977.59;5092821;28;20034;-80
2021/06/17 02:58:34;;;;;;;3.67;2.78;;;;;;;18.05;75.01;98984.94;5093218;28;20031;-78
2021/06/17 03:01:22;;;;;;;4.20;3.08;;;;;;;18.07;75.04;98990.00;5113001;28;20054;-78
2021/06/17 03:03:53;;;;;;;8.93;2.78;;;;;;;18.09;75.17;98995.88;5096400;28;20028;-79
2021/06/17 03:06:21;;;;;;;2.97;2.78;;;;;;;18.18;74.99;98995.84;5090327;28;20032;-79
2021/06/17 03:08:52;;;;;;;4.63;4.20;;;;;;;18.26;74.58;99002.31;5114736;28;20042;-80
2021/06/17 03:11:19;;;;;;;3.65;3.05;;;;;;;18.33;74.31;98995.25;5115351;28;20467;-81
2021/06/17 03:13:48;;;;;;;8.18;3.28;;;;;;;18.59;73.93;98990.75;5096761;28;20039;-77
2021/06/17 03:16:19;;;;;;;4.45;2.80;;;;;;;18.95;73.06;99005.63;5096380;28;20016;-78
2021/06/17 03:18:47;;;;;;;3.78;2.83;;;;;;;19.29;72.09;99001.78;5096465;28;20028;-78
2021/06/17 03:21:13;;;;;;;2.65;2.45;;;;;;;19.70;70.81;98998.47;5108176;28;20102;-79
2021/06/17 03:23:42;;;;;;;2.92;2.50;;;;;;;20.12;69.23;98990.91;5081704;28;20095;-80
2021/06/17 03:26:11;;;;;;;2.90;2.30;;;;;;;20.51;68.00;98987.78;5076262;28;20036;-80
2021/06/17 03:28:39;;;;;;;4.20;2.58;;;;;;;21.00;66.23;98999.63;5075903;28;20114;-81
2021/06/17 03:31:09;;;;;;;3.40;2.50;;;;;;;21.31;64.84;98987.22;5076205;28;20395;-81
2021/06/17 03:33:38;;;;;;;2.58;2.38;;;;;;;21.46;63.35;98991.91;5094452;28;20036;-81
2021/06/17 03:36:07;;;;;;;3.35;2.97;;;;;;;21.50;63.52;99000.16;5104414;28;20505;-79
2021/06/17 03:38:35;;;;;;;2.90;2.40;;;;;;;21.51;62.82;98988.91;5095758;28;20027;-80
2021/06/17 03:41:03;;;;;;;2.80;2.60;;;;;;;21.48;62.19;98995.03;5096261;28;20020;-80
2021/06/17 03:43:30;;;;;;;3.60;2.70;;;;;;;21.48;62.38;98995.03;5114615;28;20128;-80
2021/06/17 03:45:57;;;;;;;3.72;2.58;;;;;;;21.52;62.47;98995.94;5108745;28;20388;-82
2021/06/17 03:48:24;;;;;;;4.47;3.00;;;;;;;21.62;62.42;98994.66;5075871;28;20032;-82
2021/06/17 03:50:50;;;;;;;4.05;3.40;;;;;;;21.81;62.17;98993.94;5079475;28;20032;-82
2021/06/17 03:53:19;;;;;;;7.43;3.33;;;;;;;22.11;62.22;99003.56;5075680;28;20047;-82
2021/06/17 03:55:45;;;;;;;5.22;2.47;;;;;;;22.54;61.33;99007.25;5085200;28;20032;-80
2021/06/17 03:58:11;;;;;;;3.75;2.97;;;;;;;22.87;59.68;99011.41;5089924;28;20116;-80
2021/06/17 04:00:37;;;;;;;6.70;2.88;;;;;;;23.10;59.12;99016.13;5095324;28;20112;-82
2021/06/17 04:03:08;;;;;;;9.70;4.78;;;;;;;23.26;58.36;99021.53;5114235;28;20047;-83
2021/06/17 04:05:35;;;;;;;4.53;3.55;;;;;;;23.38;57.49;99024.09;5095406;28;20042;-79
2021/06/17 04:08:02;;;;;;;3.00;2.67;;;;;;;23.47;56.78;99032.03;5095550;28;20046;-79
2021/06/17 04:10:29;;;;;;;4.38;2.78;;;;;;;23.55;55.96;99036.47;5096880;28;20775;-80
2021/06/17 04:12:56;;;;;;;3.88;2.92;;;;;;;23.62;56.08;99035.78;5113391;28;20425;-79
2021/06/17 04:15:22;;;;;;;3.90;2.15;;;;;;;23.67;55.86;99039.00;5113004;28;20031;-78
2021/06/17 04:17:53;;;;;;;3.88;2.30;;;;;;;23.70;55.21;99042.94;5094466;28;20131;-81
2021/06/17 04:20:24;;;;;;;3.03;2.45;;;;;;;23.72;55.10;99034.41;5112466;28;20039;-80
2021/06/17 04:22:51;;;;;;;3.13;2.67;;;;;;;23.70;54.82;99040.22;5100000;28;20055;-81
2021/06/17 04:25:19;;;;;;;4.28;2.30;;;;;;;23.65;54.73;99041.31;5102117;28;20055;-85
2021/06/17 04:27:47;;;;;;;6.18;3.72;;;;;;;23.59;55.40;99050.94;5105857;28;20031;-79
2021/06/17 04:30:15;;;;;;;3.88;2.60;;;;;;;23.50;55.70;99053.91;5097991;28;20483;-79
2021/06/17 04:32:41;;;;;;;;;;;;;;;23.34;56.14;99056.75;5109639;28;20399;-79
2021/06/17 04:35:07;;;;;;;4.57;2.75;;;;;;;23.24;55.92;99062.00;5096808;28;20439;-78
2021/06/17 04:37:33;;;;;;;5.18;4.60;;;;;;;23.26;56.30;99052.31;5093167;28;20077;-78
2021/06/17 04:40:00;;;;;;;4.20;2.55;;;;;;;23.24;56.43;99062.00;5090840;28;20028;-78
2021/06/17 04:42:27;;;;;;;4.10;2.63;;;;;;;23.15;55.76;99067.66;5092957;28;20044;-78
2021/06/17 04:44:53;;;;;;;3.42;3.03;;;;;;;23.09;55.98;99072.63;5092729;28;20522;-77
2021/06/17 04:47:20;;;;;;;4.00;3.60;;;;;;;23.06;56.77;99069.81;5092458;28;20086;-78
2021/06/17 04:49:47;;;;;;;5.00;3.22;;;;;;;23.13;56.80;99080.88;5074063;28;20409;-77
2021/06/17 04:52:22;;;;;;;3.88;3.35;;;;;;;23.27;57.21;99078.44;5074372;28;20036;-78
2021/06/17 04:54:48;;;;;;;4.88;3.78;;;;;;;23.53;57.22;99074.25;5074195;28;20170;-78
2021/06/17 04:57:13;;;;;;;4.07;3.38;;;;;;;23.87;56.49;99079.91;5092599;28;20531;-78
2021/06/17 04:59:39;;;;;;;4.95;2.88;;;;;;;24.28;55.58;99073.94;5092234;28;20020;-77
2021/06/17 05:02:04;;;;;;;3.38;3.08;;;;;;;24.69;54.93;99078.81;5092610;28;20127;-77
2021/06/17 05:04:30;;;;;;;13.68;8.38;;;;;;;25.13;53.49;99072.72;5092189;28;20016;-77
2021/06/17 05:12:09;;;;;;;12.18;5.40;;;;;;;26.56;49.84;99082.56;5092105;28;20518;-77
2021/06/17 05:14:35;;;;;;;3.22;2.92;;;;;;;26.92;48.33;99082.00;5073981;28;20024;-77
2021/06/17 05:17:00;;;;;;;4.22;3.58;;;;;;;27.27;47.91;99084.09;5091858;28;20027;-79
2021/06/17 05:19:26;;;;;;;3.58;3.28;;;;;;;27.57;46.86;99088.47;5073805;28;20403;-79
2021/06/17 05:21:52;;;;;;;4.97;3.17;;;;;;;27.90;46.62;99085.75;5073294;28;20024;-77
2021/06/17 05:24:17;;;;;;;7.10;3.53;;;;;;;28.16;46.01;99081.06;5090964;28;20051;-78
2021/06/17 05:26:42;;;;;;;3.78;2.97;;;;;;;28.43;45.63;99084.19;5091323;28;20032;-79
2021/06/17 05:29:08;;;;;;;3.45;2.92;;;;;;;28.79;44.46;99084.09;5073490;28;20024;-79
2021/06/17 05:31:33;;;;;;;3.85;3.30;;;;;;;29.07;43.80;99077.66;5073589;28;20032;-78
2021/06/17 05:33:59;;;;;;;6.45;3.30;;;;;;;29.44;43.69;99085.78;5073360;28;20030;-79
2021/06/17 05:36:24;;;;;;;3.83;3.42;;;;;;;29.82;42.94;99083.13;5073617;28;20024;-79
2021/06/17 05:38:51;;;;;;;6.15;2.67;;;;;;;30.18;42.12;99080.88;5091795;28;20149;-77
2021/06/17 05:41:17;;;;;;;4.53;2.35;;;;;;;30.61;41.29;99068.63;5091372;28;20028;-79
2021/06/17 05:43:42;;;;;;;1.92;1.83;;;;;;;31.07;40.56;99079.53;5073275;28;20032;-78
2021/06/17 05:46:08;;;;;;;2.60;2.38;;;;;;;31.35;38.75;99075.63;5091689;28;20443;-77
2021/06/17 05:48:34;;;;;;;4.47;2.08;;;;;;;31.67;37.90;99079.91;5073334;28;20099;-77
2021/06/17 05:51:00;;;;;;;2.42;2.03;;;;;;;32.00;37.61;99077.38;5091163;28;20024;-78
2021/06/17 05:53:25;;;;;;;1.95;1.85;;;;;;;32.39;36.74;99070.38;5073264;28;20042;-77
2021/06/17 05:55:51;;;;;;;3.67;3.22;;;;;;;32.71;35.94;99069.00;5091018;28;20479;-77
2021/06/17 05:58:16;;;;;;;4.88;3.05;;;;;;;33.03;35.40;99069.53;5091385;28;20558;-77
2021/06/17 06:00:42;;;;;;;1.92;1.83;;;;;;;33.42;35.36;99062.34;5091180;28;20031;-77
2021/06/17 06:03:08;;;;;;;3.35;2.40;;;;;;;33.79;34.48;99063.06;5091417;28;20016;-77
2021/06/17 06:05:34;;;;;;;1.83;1.73;;;;;;;34.14;34.17;99068.16;5091363;28;20029;-77
2021/06/17 06:08:02;;;;;;;1.92;1.83;;;;;;;34.42;33.84;99063.84;5090854;28;20035;-78
2021/06/17 06:10:29;;;;;;;6.38;1.80;;;;;;;34.71;33.17;99070.59;5091480;28;20466;-77
2021/06/17 06:12:55;;;;;;;3.58;1.75;;;;;;;34.90;33.37;99055.78;5072842;28;20655;-78
2021/06/17 06:15:21;;;;;;;4.63;2.15;;;;;;;35.05;32.39;99056.13;5073040;28;20028;-78
2021/06/17 06:17:47;;;;;;;1.98;1.88;;;;;;;35.15;32.42;99054.22;5072629;28;20036;-78
2021/06/17 06:20:13;;;;;;;3.85;2.00;;;;;;;35.16;32.68;99050.22;5091174;28;20475;-78
2021/06/17 06:22:39;;;;;;;3.00;2.03;;;;;;;35.17;32.01;99056.56;5091035;28;20473;-78
2021/06/17 06:25:06;;;;;;;2.17;2.03;;;;;;;35.16;32.46;99064.13;5072390;28;20541;-78
2021/06/17 06:27:31;;;;;;;7.37;2.30;;;;;;;34.97;33.04;99065.13;5072871;28;20035;-78
2021/06/17 06:30:00;;;;;;;4.03;3.65;;;;;;;34.75;32.25;99058.19;5090531;28;20024;-77
2021/06/17 06:32:26;;;;;;;3.80;2.55;;;;;;;34.44;32.96;99068.97;5091149;28;20101;-78
2021/06/17 06:34:52;;;;;;;2.45;2.25;;;;;;;34.25;33.63;99065.09;5090486;28;20515;-78
2021/06/17 06:37:17;;;;;;;2.17;2.03;;;;;;;33.96;34.54;99072.16;5076418;28;20123;-78
2021/06/17 06:39:42;;;;;;;2.40;2.20;;;;;;;33.79;34.18;99076.91;5094870;28;20024;-78
2021/06/17 06:42:08;;;;;;;3.13;2.92;;;;;;;33.45;34.60;99072.59;5094912;28;20025;-78
2021/06/17 06:44:33;;;;;;;1.75;1.65;;;;;;;33.22;34.57;99073.47;5095142;28;20032;-79
2021/06/17 06:46:59;;;;;;;2.47;1.77;;;;;;;32.94;35.42;99072.88;5094523;28;20024;-77
2021/06/17 06:49:25;;;;;;;3.45;1.90;;;;;;;32.67;34.76;99084.09;5094859;28;20035;-78
2021/06/17 06:51:51;;;;;;;3.88;1.83;;;;;;;32.44;35.58;99085.72;5076295;28;20032;-78
2021/06/17 06:54:18;;;;;;;1.80;1.70;;;;;;;32.28;36.02;99080.88;5076323;28;20133;-77
2021/06/17 06:56:46;;;;;;;4.05;2.00;;;;;;;32.14;36.67;99081.91;5076326;28;20470;-78
2021/06/17 06:59:12;;;;;;;2.08;1.83;;;;;;;31.94;36.98;99084.59;5094753;28;20110;-76
2021/06/17 07:01:37;;;;;;;2.33;2.17;;;;;;;31.70;36.77;99081.84;5076527;28;20464;-77
2021/06/17 07:04:04;;;;;;;2.40;2.20;;;;;;;31.43;37.35;99074.31;5094785;28;20420;-78
2021/06/17 07:06:29;;;;;;;1.77;1.67;;;;;;;31.25;37.80;99079.28;5094773;28;20020;-78
2021/06/17 07:08:55;;;;;;;2.63;1.80;;;;;;;31.09;39.09;99083.47;5094011;28;20502;-78
2021/06/17 07:11:20;;;;;;;2.30;2.08;;;;;;;30.90;39.19;99078.56;5094307;28;20027;-78
2021/06/17 07:13:46;;;;;;;2.20;2.00;;;;;;;30.55;39.52;99080.53;5094194;28;20031;-78
2021/06/17 07:16:11;;;;;;;3.08;2.33;;;;;;;30.31;41.07;99083.91;5094455;28;20020;-78
2021/06/17 07:18:37;;;;;;;2.50;2.40;;;;;;;29.96;41.84;99090.56;5076051;28;20089;-78
2021/06/17 07:21:02;;;;;;;4.47;2.67;;;;;;;29.66;43.25;99075.38;5094155;28;20024;-78
2021/06/17 07:23:29;;;;;;;5.28;3.58;;;;;;;29.30;43.99;99081.91;5094230;28;20032;-78
2021/06/17 07:25:54;;;;;;;5.60;2.88;;;;;;;29.05;44.76;99082.00;5093456;28;20070;-78
2021/06/17 07:28:20;;;;;;;3.10;2.80;;;;;;;28.92;45.65;99085.22;5093817;28;20562;-79
2021/06/17 07:30:45;;;;;;;3.92;3.63;;;;;;;28.79;46.59;99089.59;5094055;28;20032;-78
2021/06/17 07:33:11;;;;;;;4.57;3.00;;;;;;;28.75;46.49;99086.84;5093932;28;20020;-78
2021/06/17 07:35:37;;;;;;;4.03;3.00;;;;;;;28.66;46.90;99075.47;5094264;28;20024;-78
2021/06/17 07:38:02;;;;;;;4.30;2.28;;;;;;;28.63;47.38;99083.75;5094070;28;20028;-78
2021/06/17 07:40:28;;;;;;;6.65;2.85;;;;;;;28.63;47.39;99086.50;5093783;28;20028;-77
2021/06/17 07:42:53;;;;;;;3.20;2.60;;;;;;;28.55;47.02;99078.25;5075646;28;20483;-80
2021/06/17 07:45:19;;;;;;;4.10;2.90;;;;;;;28.50;46.14;99084.13;5075718;28;20084;-77
2021/06/17 07:47:44;;;;;;;3.35;2.42;;;;;;;28.43;46.66;99084.19;5075155;28;20024;-77
2021/06/17 07:50:11;;;;;;;3.00;2.60;;;;;;;28.40;46.60;99093.22;5075565;28;20406;-79
2021/06/17 07:52:36;;;;;;;2.72;2.53;;;;;;;28.33;46.31;99084.97;5093816;28;20024;-79
2021/06/17 07:55:03;;;;;;;2.42;2.22;;;;;;;28.33;47.65;99087.72;5093602;28;20500;-79
2021/06/17 07:57:29;;;;;;;5.10;2.42;;;;;;;28.29;47.35;99090.47;5075552;28;20036;-77
2021/06/17 07:59:54;;;;;;;2.70;2.45;;;;;;;28.27;47.16;99081.84;5093680;28;20040;-76
2021/06/17 08:02:20;;;;;;;2.55;2.22;;;;;;;28.20;45.71;99079.13;5075403;28;20032;-78
2021/06/17 08:04:45;;;;;;;2.78;2.28;;;;;;;28.16;45.13;99079.13;5075322;28;20035;-79
2021/06/17 08:07:11;;;;;;;3.15;2.85;;;;;;;28.17;44.30;99083.41;5075059;28;20028;-77
2021/06/17 08:09:36;;;;;;;2.28;2.10;;;;;;;28.11;44.40;99088.53;5093498;28;20031;-77
2021/06/17 08:12:02;;;;;;;2.95;2.60;;;;;;;28.13;43.95;99081.88;5075657;28;20034;-77
2021/06/17 08:14:29;;;;;;;2.17;2.00;;;;;;;28.17;43.38;99085.38;5074930;28;20024;-77
2021/06/17 08:16:56;;;;;;;2.50;2.30;;;;;;;28.18;42.64;99082.25;5074909;28;20419;-79
2021/06/17 08:19:29;;;;;;;2.42;2.13;;;;;;;28.23;42.67;99083.81;5093211;28;20471;-77
2021/06/17 08:21:57;;;;;;;2.33;2.13;;;;;;;28.27;43.27;99082.63;5092921;28;20123;-77
2021/06/17 08:24:23;;;;;;;2.30;2.10;;;;;;;28.33;43.49;99077.53;5092949;28;20044;-77
2021/06/17 08:26:48;;;;;;;3.83;2.20;;;;;;;28.35;42.71;99077.91;5093260;28;20039;-77
2021/06/17 08:29:14;;;;;;;2.20;2.00;;;;;;;28.25;43.22;99073.22;5092955;28;20612;-78
2021/06/17 08:31:42;;;;;;;2.00;1.90;;;;;;;28.20;43.43;99079.88;5092964;28;20024;-79
2021/06/17 08:34:08;;;;;;;2.10;1.90;;;;;;;28.18;41.38;99076.75;5092423;28;20059;-78
2021/06/17 08:36:33;;;;;;;2.47;2.28;;;;;;;28.20;41.52;99085.38;5092582;28;20410;-77
2021/06/17 08:38:59;;;;;;;2.28;2.08;;;;;;;28.21;41.89;99077.91;5092559;28;20028;-78
2021/06/17 08:41:24;;;;;;;1.70;1.55;;;;;;;28.16;41.85;99083.81;5074656;28;20512;-79
2021/06/17 08:43:53;;;;;;;1.67;1.58;;;;;;;28.09;40.20;99071.66;5074380;28;20625;-78
2021/06/17 08:46:19;;;;;;;1.80;1.55;;;;;;;28.06;39.15;99086.19;5093005;28;20031;-79
2021/06/17 08:48:44;;;;;;;1.58;1.48;;;;;;;28.10;39.84;99080.69;5092339;28;20028;-79
2021/06/17 08:51:11;;;;;;;2.20;2.00;;;;;;;28.08;39.90;99081.06;5074231;28;20161;-78
2021/06/17 08:53:37;;;;;;;1.77;1.67;;;;;;;28.02;40.43;99070.84;5092542;28;20081;-79
2021/06/17 08:56:03;;;;;;;1.60;1.50;;;;;;;28.04;39.22;99082.22;5091998;28;20107;-79
2021/06/17 08:58:29;;;;;;;1.50;1.40;;;;;;;28.02;37.96;99079.88;5091266;28;20028;-79
2021/06/17 09:00:55;;;;;;;1.70;1.60;;;;;;;27.95;38.18;99083.41;5074086;28;20406;-79
2021/06/17 09:03:20;;;;;;;3.60;1.40;;;;;;;27.87;38.87;99075.53;5074296;28;20032;-79
2021/06/17 09:05:55;;;;;;;1.77;1.50;;;;;;;27.90;39.63;99078.28;5074258;28;20020;-79
2021/06/17 09:08:23;;;;;;;3.55;1.88;;;;;;;27.95;38.97;99077.13;5092350;28;20031;-79
2021/06/17 09:10:49;;;;;;;1.85;1.75;;;;;;;27.86;38.12;99074.78;5092267;28;20407;-78
2021/06/17 09:13:15;;;;;;;2.03;1.92;;;;;;;27.84;39.29;99065.34;5091950;28;20035;-79
2021/06/17 09:15:49;;;;;;;1.90;1.80;;;;;;;27.84;39.80;99068.88;5091838;28;20476;-79
2021/06/17 09:18:18;;;;;;;2.65;2.45;;;;;;;27.87;40.31;99068.09;5091857;28;20074;-79
2021/06/17 09:20:51;;;;;;;1.88;1.77;;;;;;;27.94;40.62;99065.34;5073898;28;20027;-79
2021/06/17 09:23:27;;;;;;;2.28;2.08;;;;;;;27.92;40.61;99067.69;5092080;28;20025;-79
2021/06/17 09:25:58;;;;;;;2.00;1.63;;;;;;;27.92;38.10;99064.19;5091759;28;20051;-78
2021/06/17 09:28:24;;;;;;;1.48;1.27;;;;;;;27.89;39.90;99062.22;5073633;28;20032;-78
2021/06/17 09:30:49;;;;;;;2.47;2.28;;;;;;;27.88;41.37;99061.44;5091550;28;20020;-77
2021/06/17 09:33:15;;;;;;;1.85;1.75;;;;;;;27.92;41.34;99064.94;5091879;28;20078;-78
2021/06/17 09:36:07;;;;;;;2.20;2.00;;;;;;;28.00;41.49;99062.19;5073547;28;20481;-77
2021/06/17 09:38:46;;;;;;;1.92;1.73;;;;;;;28.01;41.05;99061.03;5088763;28;20040;-79
2021/06/17 09:41:30;;;;;;;3.45;2.15;;;;;;;28.02;42.57;99065.34;5073413;28;20111;-79
2021/06/17 09:43:56;;;;;;;2.70;1.98;;;;;;;27.99;41.32;99061.44;5073303;28;20086;-79
2021/06/17 09:46:22;;;;;;;2.22;1.80;;;;;;;28.02;40.87;99068.88;5091645;28;20024;-78
2021/06/17 09:48:51;;;;;;;1.75;1.65;;;;;;;28.05;41.45;99067.31;5073243;28;20487;-77
2021/06/17 09:51:31;;;;;;;4.30;2.30;;;;;;;28.00;40.80;99062.97;5091329;28;20028;-77
2021/06/17 09:54:21;;;;;;;2.33;2.13;;;;;;;28.04;40.77;99057.47;5091248;28;20483;-77
2021/06/17 09:56:55;;;;;;;1.67;1.58;;;;;;;27.95;40.16;99049.63;5083944;28;20050;-77
2021/06/17 09:59:33;;;;;;;1.95;1.50;;;;;;;27.91;40.46;99049.63;5073164;28;20494;-77
2021/06/17 10:01:59;;;;;;;2.55;2.10;;;;;;;27.85;40.14;99040.22;5091165;28;20024;-77
2021/06/17 10:04:24;;;;;;;2.28;2.03;;;;;;;27.86;40.58;99050.03;5091306;28;20471;-77
2021/06/17 10:06:51;;;;;;;3.55;1.83;;;;;;;27.89;40.75;99040.22;5073205;28;20032;-77
2021/06/17 10:09:17;;;;;;;4.68;1.73;;;;;;;27.87;38.43;99032.38;5090474;28;20444;-77
2021/06/17 10:11:43;;;;;;;1.90;1.67;;;;;;;27.83;39.71;99036.31;5091185;28;20479;-77
2021/06/17 10:14:10;;;;;;;3.28;2.35;;;;;;;27.86;40.74;99027.28;5091071;28;20119;-77
2021/06/17 10:16:42;;;;;;;1.70;1.50;;;;;;;27.87;39.06;99024.13;5091432;28;20071;-79
2021/06/17 10:19:09;;;;;;;2.97;1.52;;;;;;;27.79;38.46;99012.38;5072708;28;20487;-77
2021/06/17 10:21:35;;;;;;;1.70;1.58;;;;;;;27.79;38.44;99008.81;5091285;28;20440;-78
2021/06/17 10:24:03;;;;;;;2.30;1.58;;;;;;;27.83;39.60;99009.63;5072556;28;20048;-77
2021/06/17 10:26:39;;;;;;;2.33;2.22;;;;;;;27.88;38.63;99005.66;5091078;28;20024;-79
2021/06/17 10:29:05;;;;;;;2.05;1.60;;;;;;;27.92;37.74;99010.00;5090912;28;20612;-78
2021/06/17 10:31:44;;;;;;;1.77;1.67;;;;;;;27.98;37.22;99007.63;5090593;28;20592;-79
2021/06/17 10:34:31;;;;;;;2.17;1.83;;;;;;;27.95;37.93;99003.72;5072723;28;20028;-79
2021/06/17 10:37:26;;;;;;;2.63;2.20;;;;;;;27.96;38.04;99002.53;5072610;28;20031;-77
2021/06/17 10:40:08;;;;;;;2.75;2.55;;;;;;;27.91;38.08;98991.94;5091127;28;20036;-78
2021/06/17 10:42:35;;;;;;;1.98;1.73;;;;;;;27.94;39.60;98999.41;5083405;28;20035;-77
2021/06/17 10:45:04;;;;;;;2.67;2.05;;;;;;;27.97;37.65;98989.56;5090818;28;20035;-78
2021/06/17 10:47:36;;;;;;;1.90;1.70;;;;;;;27.98;37.15;98988.41;5090965;28;20024;-78
2021/06/17 10:50:09;;;;;;;1.70;1.60;;;;;;;27.95;37.14;98989.97;5072709;28;20031;-78
2021/06/17 10:52:35;;;;;;;3.22;1.52;;;;;;;28.00;37.98;98993.50;5090680;28;20024;-78
2021/06/17 10:55:06;;;;;;;3.93;2.30;;;;;;;28.04;37.43;98992.31;5072514;28;20036;-78
2021/06/17 11:00:25;;;;;;;3.03;2.00;;;;;;;28.09;39.97;98991.16;5090626;28;20411;-78
2021/06/17 11:02:55;;;;;;;1.63;1.52;;;;;;;28.07;36.58;98991.53;5090972;28;20364;-78
2021/06/17 11:05:32;;;;;;;1.70;1.60;;;;;;;28.06;36.70;99000.97;5090743;28;20048;-78
2021/06/17 11:08:13;;;;;;;1.73;1.63;;;;;;;28.07;37.75;98990.75;5090245;28;20030;-77
2021/06/17 11:11:02;;;;;;;1.85;1.52;;;;;;;28.09;36.34;98991.16;5090836;28;20027;-78
2021/06/17 11:13:31;;;;;;;1.73;1.63;;;;;;;28.02;36.19;98980.16;5090760;28;20113;-77
2021/06/17 11:16:00;;;;;;;2.85;1.60;;;;;;;28.05;36.65;98980.16;5090726;28;20024;-78
2021/06/17 11:18:53;;;;;;;2.00;1.80;;;;;;;28.03;35.25;98976.22;5072299;28;20031;-78
2021/06/17 11:21:21;;;;;;;5.00;4.07;;;;;;;27.95;36.19;98973.47;5091112;28;20016;-79
2021/06/17 11:24:01;;;;;;;1.77;1.67;;;;;;;28.00;38.00;98964.03;5094416;28;20463;-77
2021/06/17 11:26:53;;;;;;;1.48;1.38;;;;;;;28.00;39.02;98964.03;5094315;28;20052;-78
2021/06/17 11:29:21;;;;;;;1.98;1.88;;;;;;;28.06;38.22;98964.44;5090519;28;20426;-77
2021/06/17 11:31:52;;;;;;;2.33;1.65;;;;;;;28.10;38.18;98971.50;5094412;28;20059;-77
2021/06/17 11:34:38;;;;;;;4.32;1.67;;;;;;;28.17;37.17;98961.66;5093910;28;20028;-78
2021/06/17 11:37:15;;;;;;;3.38;1.58;;;;;;;28.21;36.13;98951.44;5075229;28;20028;-77
2021/06/17 11:39:41;;;;;;;2.22;1.30;;;;;;;28.21;34.63;98951.44;5094256;28;20020;-78
2021/06/17 11:42:16;;;;;;;1.40;1.30;;;;;;;28.20;34.73;98958.16;5093499;28;20404;-77
2021/06/17 11:44:41;;;;;;;1.40;1.30;;;;;;;28.22;35.08;98958.50;5094311;28;20032;-79
2021/06/17 11:47:14;;;;;;;2.25;2.05;;;;;;;28.19;35.36;98964.81;5075524;28;20119;-78
2021/06/17 11:49:44;;;;;;;1.80;1.70;;;;;;;28.20;35.85;98958.91;5093758;28;20028;-77